sensor_id;sensor_type;location;lat;lon;timestamp;pressure;altitude;pressure_sealevel;temperature;humidity
68859;BME280;55864;49.238;8.092;2023-03-26T00:01:30;98938.56;;;7.48;83.09
68859;BME280;55864;49.238;8.092;2023-03-26T00:03:31;98941.88;;;7.41;84.12
68859;BME280;55864;49.238;8.092;2023-03-26T00:05:33;98948.47;;;7.45;83.97
68859;BME280;55864;49.238;8.092;2023-03-26T00:07:34;98940.47;;;7.37;83.98
68859;BME280;55864;49.238;8.092;2023-03-26T00:09:35;98940.22;;;7.40;83.99
68859;BME280;55864;49.238;8.092;2023-03-26T00:11:35;98946.94;;;7.33;84.67
68859;BME280;55864;49.238;8.092;2023-03-26T00:13:37;98940.63;;;7.35;84.37
68859;BME280;55864;49.238;8.092;2023-03-26T00:15:37;98934.84;;;7.32;84.45
68859;BME280;55864;49.238;8.092;2023-03-26T00:17:38;98937.00;;;7.27;84.29
68859;BME280;55864;49.238;8.092;2023-03-26T00:19:38;98939.63;;;7.27;85.27
68859;BME280;55864;49.238;8.092;2023-03-26T00:21:40;98937.69;;;7.19;84.83
68859;BME280;55864;49.238;8.092;2023-03-26T00:23:41;98940.72;;;7.15;85.15
68859;BME280;55864;49.238;8.092;2023-03-26T00:25:42;98937.13;;;7.16;85.60
68859;BME280;55864;49.238;8.092;2023-03-26T00:27:43;98935.63;;;7.13;85.64
68859;BME280;55864;49.238;8.092;2023-03-26T00:29:43;98929.41;;;7.05;85.87
68859;BME280;55864;49.238;8.092;2023-03-26T00:31:44;98930.78;;;7.09;85.38
68859;BME280;55864;49.238;8.092;2023-03-26T00:33:44;98920.63;;;7.06;85.85
68859;BME280;55864;49.238;8.092;2023-03-26T00:35:52;98918.97;;;7.05;86.12
68859;BME280;55864;49.238;8.092;2023-03-26T00:37:54;98922.69;;;7.12;85.52
68859;BME280;55864;49.238;8.092;2023-03-26T00:39:56;98919.66;;;7.07;86.10
68859;BME280;55864;49.238;8.092;2023-03-26T00:41:57;98914.72;;;7.04;86.20
68859;BME280;55864;49.238;8.092;2023-03-26T00:43:58;98910.00;;;6.98;86.22
68859;BME280;55864;49.238;8.092;2023-03-26T00:45:59;98909.75;;;7.10;85.50
68859;BME280;55864;49.238;8.092;2023-03-26T00:47:59;98903.16;;;7.06;85.23
68859;BME280;55864;49.238;8.092;2023-03-26T00:50:00;98903.97;;;7.07;85.37
68859;BME280;55864;49.238;8.092;2023-03-26T00:52:01;98898.47;;;7.10;85.22
68859;BME280;55864;49.238;8.092;2023-03-26T00:54:03;98890.53;;;7.11;84.83
68859;BME280;55864;49.238;8.092;2023-03-26T00:56:04;98891.50;;;7.20;84.47
68859;BME280;55864;49.238;8.092;2023-03-26T00:58:05;98889.16;;;7.17;84.06
68859;BME280;55864;49.238;8.092;2023-03-26T01:00:08;98891.63;;;7.09;84.72
68859;BME280;55864;49.238;8.092;2023-03-26T01:02:11;98885.00;;;7.05;84.68
68859;BME280;55864;49.238;8.092;2023-03-26T01:04:24;98886.69;;;7.15;83.84
68859;BME280;55864;49.238;8.092;2023-03-26T01:06:27;98882.69;;;7.02;84.38
68859;BME280;55864;49.238;8.092;2023-03-26T01:08:30;98884.06;;;7.06;84.59
68859;BME280;55864;49.238;8.092;2023-03-26T01:10:32;98879.50;;;6.98;84.91
68859;BME280;55864;49.238;8.092;2023-03-26T01:12:32;98867.13;;;6.91;85.33
68859;BME280;55864;49.238;8.092;2023-03-26T01:14:33;98873.28;;;6.90;85.40
68859;BME280;55864;49.238;8.092;2023-03-26T01:16:37;98873.97;;;6.82;85.67
68859;BME280;55864;49.238;8.092;2023-03-26T01:18:38;98870.94;;;6.77;86.39
68859;BME280;55864;49.238;8.092;2023-03-26T01:20:41;98863.63;;;6.71;86.74
68859;BME280;55864;49.238;8.092;2023-03-26T01:22:46;98859.09;;;6.73;86.38
68859;BME280;55864;49.238;8.092;2023-03-26T01:24:50;98856.63;;;6.72;86.74
68859;BME280;55864;49.238;8.092;2023-03-26T01:27:07;98856.63;;;6.72;86.82
68859;BME280;55864;49.238;8.092;2023-03-26T01:29:16;98852.50;;;6.69;86.78
68859;BME280;55864;49.238;8.092;2023-03-26T01:31:24;98850.59;;;6.71;86.80
68859;BME280;55864;49.238;8.092;2023-03-26T01:33:31;98839.06;;;6.74;87.24
68859;BME280;55864;49.238;8.092;2023-03-26T01:35:43;98841.66;;;6.74;86.94
68859;BME280;55864;49.238;8.092;2023-03-26T01:37:53;98835.63;;;6.73;86.78
68859;BME280;55864;49.238;8.092;2023-03-26T01:40:01;98831.66;;;6.79;86.54
68859;BME280;55864;49.238;8.092;2023-03-26T01:42:06;98829.44;;;6.74;86.21
68859;BME280;55864;49.238;8.092;2023-03-26T01:44:15;98822.97;;;6.78;86.55
68859;BME280;55864;49.238;8.092;2023-03-26T01:46:21;98817.22;;;6.75;86.16
68859;BME280;55864;49.238;8.092;2023-03-26T01:48:28;98814.31;;;6.78;86.41
68859;BME280;55864;49.238;8.092;2023-03-26T01:50:29;98803.63;;;6.81;86.43
68859;BME280;55864;49.238;8.092;2023-03-26T01:52:30;98799.50;;;6.78;86.36
68859;BME280;55864;49.238;8.092;2023-03-26T01:54:31;98794.28;;;6.78;86.51
68859;BME280;55864;49.238;8.092;2023-03-26T01:56:38;98789.34;;;6.75;86.29
68859;BME280;55864;49.238;8.092;2023-03-26T01:58:48;98794.56;;;6.75;86.25
68859;BME280;55864;49.238;8.092;2023-03-26T02:00:54;98789.00;;;6.59;86.95
68859;BME280;55864;49.238;8.092;2023-03-26T02:03:04;98789.44;;;6.54;87.27
68859;BME280;55864;49.238;8.092;2023-03-26T02:05:11;98782.16;;;6.58;87.08
68859;BME280;55864;49.238;8.092;2023-03-26T02:07:20;98778.19;;;6.63;86.79
68859;BME280;55864;49.238;8.092;2023-03-26T02:09:25;98782.97;;;6.68;86.29
68859;BME280;55864;49.238;8.092;2023-03-26T02:11:28;98778.75;;;6.77;85.69
68859;BME280;55864;49.238;8.092;2023-03-26T02:13:31;98770.50;;;6.72;86.35
68859;BME280;55864;49.238;8.092;2023-03-26T02:15:32;98773.25;;;6.80;85.80
68859;BME280;55864;49.238;8.092;2023-03-26T02:17:33;98770.38;;;6.83;85.58
68859;BME280;55864;49.238;8.092;2023-03-26T02:19:34;98766.53;;;6.77;85.68
68859;BME280;55864;49.238;8.092;2023-03-26T02:21:35;98761.56;;;6.74;85.60
68859;BME280;55864;49.238;8.092;2023-03-26T02:23:35;98754.03;;;6.81;85.52
68859;BME280;55864;49.238;8.092;2023-03-26T02:25:36;98756.53;;;7.11;84.59
68859;BME280;55864;49.238;8.092;2023-03-26T02:27:37;98750.84;;;7.34;83.92
68859;BME280;55864;49.238;8.092;2023-03-26T02:29:40;98751.66;;;7.54;83.56
68859;BME280;55864;49.238;8.092;2023-03-26T02:31:42;98735.44;;;7.60;83.28
68859;BME280;55864;49.238;8.092;2023-03-26T02:33:43;98718.47;;;7.74;82.99
68859;BME280;55864;49.238;8.092;2023-03-26T02:35:44;98724.63;;;7.82;81.92
68859;BME280;55864;49.238;8.092;2023-03-26T02:37:46;98716.78;;;7.82;82.04
68859;BME280;55864;49.238;8.092;2023-03-26T02:39:50;98722.84;;;7.83;81.56
68859;BME280;55864;49.238;8.092;2023-03-26T02:41:59;98715.91;;;7.91;81.62
68859;BME280;55864;49.238;8.092;2023-03-26T02:44:02;98719.47;;;8.00;81.47
68859;BME280;55864;49.238;8.092;2023-03-26T02:46:30;98713.47;;;8.26;80.69
68859;BME280;55864;49.238;8.092;2023-03-26T02:48:43;98715.56;;;8.40;80.30
68859;BME280;55864;49.238;8.092;2023-03-26T02:50:56;98711.16;;;8.41;79.61
68859;BME280;55864;49.238;8.092;2023-03-26T02:52:57;98707.22;;;8.54;78.94
68859;BME280;55864;49.238;8.092;2023-03-26T02:54:58;98701.09;;;8.64;79.12
68859;BME280;55864;49.238;8.092;2023-03-26T02:57:00;98695.28;;;8.70;78.31
68859;BME280;55864;49.238;8.092;2023-03-26T02:59:20;98701.56;;;8.77;78.32
68859;BME280;55864;49.238;8.092;2023-03-26T03:01:31;98691.06;;;8.77;77.83
68859;BME280;55864;49.238;8.092;2023-03-26T03:03:32;98690.34;;;8.84;77.70
68859;BME280;55864;49.238;8.092;2023-03-26T03:05:32;98683.16;;;8.86;76.78
68859;BME280;55864;49.238;8.092;2023-03-26T03:07:52;98679.09;;;8.92;77.67
68859;BME280;55864;49.238;8.092;2023-03-26T03:09:52;98679.81;;;8.76;77.79
68859;BME280;55864;49.238;8.092;2023-03-26T03:12:13;98672.38;;;8.72;78.65
68859;BME280;55864;49.238;8.092;2023-03-26T03:14:13;98667.28;;;8.88;77.69
68859;BME280;55864;49.238;8.092;2023-03-26T03:16:15;98658.63;;;8.87;77.93
68859;BME280;55864;49.238;8.092;2023-03-26T03:18:18;98660.41;;;8.87;78.56
68859;BME280;55864;49.238;8.092;2023-03-26T03:20:19;98654.56;;;8.93;78.01
68859;BME280;55864;49.238;8.092;2023-03-26T03:22:19;98646.91;;;8.99;77.31
68859;BME280;55864;49.238;8.092;2023-03-26T03:24:22;98638.09;;;9.00;77.76
68859;BME280;55864;49.238;8.092;2023-03-26T03:26:24;98631.53;;;8.96;77.63
68859;BME280;55864;49.238;8.092;2023-03-26T03:28:26;98633.78;;;8.91;78.08
68859;BME280;55864;49.238;8.092;2023-03-26T03:30:26;98637.59;;;8.97;77.36
68859;BME280;55864;49.238;8.092;2023-03-26T03:32:56;98636.94;;;9.03;77.54
68859;BME280;55864;49.238;8.092;2023-03-26T03:34:58;98628.50;;;9.09;77.79
68859;BME280;55864;49.238;8.092;2023-03-26T03:36:59;98631.59;;;8.87;78.09
68859;BME280;55864;49.238;8.092;2023-03-26T03:39:09;98627.88;;;8.89;79.11
68859;BME280;55864;49.238;8.092;2023-03-26T03:41:10;98628.38;;;8.93;78.81
68859;BME280;55864;49.238;8.092;2023-03-26T03:43:14;98630.34;;;8.91;nan
68859;BME280;55864;49.238;8.092;2023-03-26T03:45:31;98625.94;;;8.91;78.86
68859;BME280;55864;49.238;8.092;2023-03-26T03:47:54;98614.97;;;8.96;78.39
68859;BME280;55864;49.238;8.092;2023-03-26T03:50:09;98603.22;;;9.00;77.78
68859;BME280;55864;49.238;8.092;2023-03-26T03:52:12;98597.53;;;9.04;76.95
68859;BME280;55864;49.238;8.092;2023-03-26T03:54:15;98599.00;;;9.07;77.09
68859;BME280;55864;49.238;8.092;2023-03-26T03:56:18;98591.66;;;9.10;77.07
68859;BME280;55864;49.238;8.092;2023-03-26T03:58:54;98581.34;;;9.09;77.20
68859;BME280;55864;49.238;8.092;2023-03-26T04:01:03;98579.38;;;9.11;76.76
68859;BME280;55864;49.238;8.092;2023-03-26T04:03:24;98574.47;;;9.08;76.51
68859;BME280;55864;49.238;8.092;2023-03-26T04:05:26;98574.25;;;9.01;77.06
68859;BME280;55864;49.238;8.092;2023-03-26T04:07:28;98569.38;;;8.81;78.01
68859;BME280;55864;49.238;8.092;2023-03-26T04:09:40;98559.03;;;8.79;77.99
68859;BME280;55864;49.238;8.092;2023-03-26T04:11:48;98554.94;;;8.77;76.84
68859;BME280;55864;49.238;8.092;2023-03-26T04:14:11;98552.03;;;8.80;77.74
68859;BME280;55864;49.238;8.092;2023-03-26T04:16:22;98547.53;;;8.98;76.80
68859;BME280;55864;49.238;8.092;2023-03-26T04:18:23;98539.50;;;8.91;77.68
68859;BME280;55864;49.238;8.092;2023-03-26T04:20:24;98535.03;;;8.84;77.36
68859;BME280;55864;49.238;8.092;2023-03-26T04:22:26;98533.28;;;8.92;77.15
68859;BME280;55864;49.238;8.092;2023-03-26T04:24:32;98523.13;;;8.89;77.69
68859;BME280;55864;49.238;8.092;2023-03-26T04:26:59;98522.38;;;8.79;78.48
68859;BME280;55864;49.238;8.092;2023-03-26T04:29:06;98513.50;;;8.72;78.51
68859;BME280;55864;49.238;8.092;2023-03-26T04:31:11;98510.38;;;8.69;78.50
68859;BME280;55864;49.238;8.092;2023-03-26T04:33:14;98518.09;;;8.70;78.97
68859;BME280;55864;49.238;8.092;2023-03-26T04:35:16;98524.25;;;8.87;78.36
68859;BME280;55864;49.238;8.092;2023-03-26T04:37:27;98512.81;;;8.96;78.02
68859;BME280;55864;49.238;8.092;2023-03-26T04:39:41;98512.31;;;8.92;78.17
68859;BME280;55864;49.238;8.092;2023-03-26T04:42:08;98514.22;;;8.82;78.10
68859;BME280;55864;49.238;8.092;2023-03-26T04:44:21;98505.84;;;8.79;78.84
68859;BME280;55864;49.238;8.092;2023-03-26T04:46:30;98497.84;;;8.80;78.26
68859;BME280;55864;49.238;8.092;2023-03-26T04:48:41;98510.16;;;8.88;78.21
68859;BME280;55864;49.238;8.092;2023-03-26T04:50:43;98508.53;;;8.87;77.93
68859;BME280;55864;49.238;8.092;2023-03-26T04:52:44;98510.78;;;8.82;78.02
68859;BME280;55864;49.238;8.092;2023-03-26T04:55:10;98503.72;;;8.74;78.38
68859;BME280;55864;49.238;8.092;2023-03-26T04:57:15;98499.66;;;8.80;78.33
68859;BME280;55864;49.238;8.092;2023-03-26T04:59:33;98492.25;;;8.75;78.23
68859;BME280;55864;49.238;8.092;2023-03-26T05:01:36;98492.91;;;8.77;78.43
68859;BME280;55864;49.238;8.092;2023-03-26T05:03:37;98483.72;;;8.73;78.62
68859;BME280;55864;49.238;8.092;2023-03-26T05:05:41;98487.63;;;8.69;78.52
68859;BME280;55864;49.238;8.092;2023-03-26T05:07:44;98477.81;;;8.71;78.32
68859;BME280;55864;49.238;8.092;2023-03-26T05:09:47;98476.69;;;8.74;79.17
68859;BME280;55864;49.238;8.092;2023-03-26T05:11:57;98462.31;;;8.78;79.64
68859;BME280;55864;49.238;8.092;2023-03-26T05:13:58;98465.63;;;8.88;79.36
68859;BME280;55864;49.238;8.092;2023-03-26T05:15:59;98465.22;;;9.00;78.90
68859;BME280;55864;49.238;8.092;2023-03-26T05:18:12;98466.16;;;8.91;79.16
68859;BME280;55864;49.238;8.092;2023-03-26T05:20:24;98466.00;;;8.93;79.18
68859;BME280;55864;49.238;8.092;2023-03-26T05:22:26;98448.47;;;8.85;79.26
68859;BME280;55864;49.238;8.092;2023-03-26T05:24:43;98447.94;;;8.82;79.04
68859;BME280;55864;49.238;8.092;2023-03-26T05:26:43;98441.06;;;8.81;79.54
68859;BME280;55864;49.238;8.092;2023-03-26T05:28:46;98435.31;;;8.77;79.38
68859;BME280;55864;49.238;8.092;2023-03-26T05:31:07;98416.00;;;8.78;79.55
68859;BME280;55864;49.238;8.092;2023-03-26T05:33:11;98419.44;;;8.79;79.42
68859;BME280;55864;49.238;8.092;2023-03-26T05:35:24;98414.03;;;8.80;79.90
68859;BME280;55864;49.238;8.092;2023-03-26T05:37:24;98412.38;;;8.71;80.72
68859;BME280;55864;49.238;8.092;2023-03-26T05:39:35;98400.56;;;8.67;80.37
68859;BME280;55864;49.238;8.092;2023-03-26T05:41:58;98399.09;;;8.65;81.21
68859;BME280;55864;49.238;8.092;2023-03-26T05:44:09;98391.47;;;8.79;80.77
68859;BME280;55864;49.238;8.092;2023-03-26T05:46:10;98391.97;;;8.83;80.90
68859;BME280;55864;49.238;8.092;2023-03-26T05:48:11;98381.16;;;8.78;81.56
68859;BME280;55864;49.238;8.092;2023-03-26T05:50:11;98377.88;;;8.76;81.23
68859;BME280;55864;49.238;8.092;2023-03-26T05:52:15;98368.53;;;8.73;81.78
68859;BME280;55864;49.238;8.092;2023-03-26T05:54:33;98363.19;;;8.49;81.98
68859;BME280;55864;49.238;8.092;2023-03-26T05:56:37;98356.41;;;8.13;82.19
68859;BME280;55864;49.238;8.092;2023-03-26T05:59:17;98349.19;;;7.89;82.92
68859;BME280;55864;49.238;8.092;2023-03-26T06:01:36;98353.28;;;7.66;83.61
68859;BME280;55864;49.238;8.092;2023-03-26T06:03:59;98344.53;;;7.57;83.55
68859;BME280;55864;49.238;8.092;2023-03-26T06:06:06;98334.94;;;7.58;83.99
68859;BME280;55864;49.238;8.092;2023-03-26T06:08:15;98329.09;;;7.46;84.21
68859;BME280;55864;49.238;8.092;2023-03-26T06:10:22;98331.22;;;7.43;84.95
68859;BME280;55864;49.238;8.092;2023-03-26T06:12:23;98321.72;;;7.42;85.67
68859;BME280;55864;49.238;8.092;2023-03-26T06:14:25;98318.97;;;7.43;85.33
68859;BME280;55864;49.238;8.092;2023-03-26T06:16:41;98326.06;;;7.33;86.27
68859;BME280;55864;49.238;8.092;2023-03-26T06:18:51;98316.63;;;7.40;87.08
68859;BME280;55864;49.238;8.092;2023-03-26T06:21:12;98314.78;;;7.50;86.01
68859;BME280;55864;49.238;8.092;2023-03-26T06:23:23;98308.22;;;7.46;86.70
68859;BME280;55864;49.238;8.092;2023-03-26T06:25:44;98308.56;;;7.51;87.14
68859;BME280;55864;49.238;8.092;2023-03-26T06:28:08;98311.84;;;7.53;87.22
68859;BME280;55864;49.238;8.092;2023-03-26T06:30:29;98308.25;;;7.72;87.18
68859;BME280;55864;49.238;8.092;2023-03-26T06:32:39;98323.19;;;7.80;87.66
68859;BME280;55864;49.238;8.092;2023-03-26T06:34:43;98334.00;;;7.67;88.39
68859;BME280;55864;49.238;8.092;2023-03-26T06:36:44;98330.63;;;7.75;87.71
68859;BME280;55864;49.238;8.092;2023-03-26T06:38:45;98335.25;;;7.81;86.89
68859;BME280;55864;49.238;8.092;2023-03-26T06:40:46;98330.88;;;7.81;86.34
68859;BME280;55864;49.238;8.092;2023-03-26T06:45:08;98330.84;;;8.07;85.16
68859;BME280;55864;49.238;8.092;2023-03-26T06:47:29;98317.16;;;8.13;84.72
68859;BME280;55864;49.238;8.092;2023-03-26T06:50:06;98306.03;;;8.11;84.84
68859;BME280;55864;49.238;8.092;2023-03-26T06:52:25;98302.41;;;8.04;84.14
68859;BME280;55864;49.238;8.092;2023-03-26T06:54:43;98298.44;;;7.74;84.52
68859;BME280;55864;49.238;8.092;2023-03-26T06:56:57;98300.88;;;7.50;85.67
68859;BME280;55864;49.238;8.092;2023-03-26T06:59:17;98298.06;;;7.43;86.04
68859;BME280;55864;49.238;8.092;2023-03-26T07:01:38;98294.22;;;7.55;85.12
68859;BME280;55864;49.238;8.092;2023-03-26T07:03:58;98289.13;;;7.97;85.03
68859;BME280;55864;49.238;8.092;2023-03-26T07:06:17;98292.50;;;8.15;84.42
68859;BME280;55864;49.238;8.092;2023-03-26T07:08:36;98289.13;;;8.23;84.59
68859;BME280;55864;49.238;8.092;2023-03-26T07:10:55;98287.72;;;8.28;83.60
68859;BME280;55864;49.238;8.092;2023-03-26T07:13:14;98281.34;;;8.05;83.81
68859;BME280;55864;49.238;8.092;2023-03-26T07:15:35;98279.38;;;7.82;83.97
68859;BME280;55864;49.238;8.092;2023-03-26T07:18:05;98280.25;;;7.64;84.95
68859;BME280;55864;49.238;8.092;2023-03-26T07:20:10;98275.59;;;7.50;85.86
68859;BME280;55864;49.238;8.092;2023-03-26T07:22:14;98275.06;;;7.47;86.22
68859;BME280;55864;49.238;8.092;2023-03-26T07:24:51;98275.44;;;7.52;86.28
68859;BME280;55864;49.238;8.092;2023-03-26T07:27:36;98263.84;;;7.72;84.81
68859;BME280;55864;49.238;8.092;2023-03-26T07:29:43;98259.50;;;7.63;84.31
68859;BME280;55864;49.238;8.092;2023-03-26T07:32:15;98262.44;;;7.60;85.56
68859;BME280;55864;49.238;8.092;2023-03-26T07:34:36;98260.69;;;7.69;85.86
68859;BME280;55864;49.238;8.092;2023-03-26T07:37:18;98243.47;;;7.58;85.77
68859;BME280;55864;49.238;8.092;2023-03-26T07:39:45;98231.06;;;7.60;86.26
68859;BME280;55864;49.238;8.092;2023-03-26T07:42:00;98232.59;;;7.45;87.06
68859;BME280;55864;49.238;8.092;2023-03-26T07:44:33;98231.25;;;7.41;87.76
68859;BME280;55864;49.238;8.092;2023-03-26T07:46:53;98232.25;;;7.40;88.16
68859;BME280;55864;49.238;8.092;2023-03-26T07:49:13;98227.66;;;7.42;87.89
68859;BME280;55864;49.238;8.092;2023-03-26T07:51:33;98230.69;;;7.81;87.25
68859;BME280;55864;49.238;8.092;2023-03-26T07:53:56;98235.81;;;7.64;86.98
68859;BME280;55864;49.238;8.092;2023-03-26T07:56:16;98223.97;;;7.78;86.74
68859;BME280;55864;49.238;8.092;2023-03-26T08:01:24;98211.41;;;8.07;86.17
68859;BME280;55864;49.238;8.092;2023-03-26T08:03:31;98217.97;;;7.86;86.21
68859;BME280;55864;49.238;8.092;2023-03-26T08:06:03;98218.28;;;7.57;87.64
68859;BME280;55864;49.238;8.092;2023-03-26T08:08:26;98209.44;;;7.50;87.99
68859;BME280;55864;49.238;8.092;2023-03-26T08:11:01;98205.81;;;7.43;88.97
68859;BME280;55864;49.238;8.092;2023-03-26T08:13:20;98208.19;;;7.36;88.70
68859;BME280;55864;49.238;8.092;2023-03-26T08:15:27;98208.59;;;7.41;89.47
68859;BME280;55864;49.238;8.092;2023-03-26T08:17:33;98218.53;;;7.38;89.02
68859;BME280;55864;49.238;8.092;2023-03-26T08:19:49;98210.63;;;7.81;88.66
68859;BME280;55864;49.238;8.092;2023-03-26T08:21:52;98222.31;;;7.69;87.95
68859;BME280;55864;49.238;8.092;2023-03-26T08:23:59;98234.31;;;7.80;88.08
68859;BME280;55864;49.238;8.092;2023-03-26T08:26:05;98233.84;;;7.58;88.05
68859;BME280;55864;49.238;8.092;2023-03-26T08:30:39;98218.44;;;7.47;90.03
68859;BME280;55864;49.238;8.092;2023-03-26T08:32:40;98223.28;;;7.42;90.57
68859;BME280;55864;49.238;8.092;2023-03-26T08:34:41;98218.19;;;7.41;91.70
68859;BME280;55864;49.238;8.092;2023-03-26T08:36:41;98207.66;;;7.50;91.21
68859;BME280;55864;49.238;8.092;2023-03-26T08:38:42;98200.44;;;7.44;91.35
68859;BME280;55864;49.238;8.092;2023-03-26T08:43:38;98211.94;;;7.59;92.67
68859;BME280;55864;49.238;8.092;2023-03-26T08:46:04;98209.06;;;7.63;92.58
68859;BME280;55864;49.238;8.092;2023-03-26T08:56:31;98208.97;;;7.80;93.54
68859;BME280;55864;49.238;8.092;2023-03-26T08:59:10;98206.44;;;7.96;94.21
68859;BME280;55864;49.238;8.092;2023-03-26T09:01:47;98201.88;;;7.98;92.74
68859;BME280;55864;49.238;8.092;2023-03-26T09:04:07;98200.50;;;7.86;92.67
68859;BME280;55864;49.238;8.092;2023-03-26T09:06:31;98195.00;;;7.97;93.13
68859;BME280;55864;49.238;8.092;2023-03-26T09:14:32;98184.00;;;7.86;94.04
68859;BME280;55864;49.238;8.092;2023-03-26T09:17:11;98199.44;;;7.71;93.52
68859;BME280;55864;49.238;8.092;2023-03-26T09:22:25;98196.50;;;8.00;95.22
68859;BME280;55864;49.238;8.092;2023-03-26T09:24:49;98187.59;;;7.85;95.38
68859;BME280;55864;49.238;8.092;2023-03-26T09:27:08;98186.47;;;7.87;95.69
68859;BME280;55864;49.238;8.092;2023-03-26T09:32:21;98181.38;;;8.19;97.03
68859;BME280;55864;49.238;8.092;2023-03-26T09:34:31;98184.19;;;8.26;97.70
68859;BME280;55864;49.238;8.092;2023-03-26T09:36:52;98176.84;;;8.29;98.11
68859;BME280;55864;49.238;8.092;2023-03-26T09:39:02;98175.41;;;8.43;97.99
68859;BME280;55864;49.238;8.092;2023-03-26T09:41:21;98173.94;;;8.48;98.63
68859;BME280;55864;49.238;8.092;2023-03-26T09:46:00;98151.44;;;8.80;100.00
68859;BME280;55864;49.238;8.092;2023-03-26T09:51:02;98139.63;;;9.00;99.74
68859;BME280;55864;49.238;8.092;2023-03-26T09:53:18;98122.91;;;9.09;96.93
68859;BME280;55864;49.238;8.092;2023-03-26T09:55:44;98124.53;;;9.18;97.17
68859;BME280;55864;49.238;8.092;2023-03-26T09:57:59;98121.91;;;9.26;93.22
68859;BME280;55864;49.238;8.092;2023-03-26T10:00:08;98118.16;;;9.36;92.15
68859;BME280;55864;49.238;8.092;2023-03-26T10:02:29;98118.91;;;9.53;91.10
68859;BME280;55864;49.238;8.092;2023-03-26T10:05:00;98113.78;;;9.60;90.02
68859;BME280;55864;49.238;8.092;2023-03-26T10:07:09;98114.97;;;9.57;88.25
68859;BME280;55864;49.238;8.092;2023-03-26T10:09:24;98111.38;;;9.50;88.30
68859;BME280;55864;49.238;8.092;2023-03-26T10:11:42;98123.97;;;9.55;88.55
68859;BME280;55864;49.238;8.092;2023-03-26T10:13:56;98126.78;;;9.45;84.96
68859;BME280;55864;49.238;8.092;2023-03-26T10:16:07;98146.31;;;9.34;83.79
68859;BME280;55864;49.238;8.092;2023-03-26T10:18:18;98130.28;;;9.21;84.58
68859;BME280;55864;49.238;8.092;2023-03-26T10:20:34;98118.84;;;8.98;81.80
68859;BME280;55864;49.238;8.092;2023-03-26T10:22:50;98108.38;;;9.06;80.41
68859;BME280;55864;49.238;8.092;2023-03-26T10:25:16;98119.00;;;9.21;82.49
68859;BME280;55864;49.238;8.092;2023-03-26T10:27:31;98105.16;;;9.43;85.95
68859;BME280;55864;49.238;8.092;2023-03-26T10:30:15;98117.56;;;9.65;85.57
68859;BME280;55864;49.238;8.092;2023-03-26T10:32:28;98118.97;;;9.84;86.05
68859;BME280;55864;49.238;8.092;2023-03-26T10:34:47;98116.78;;;9.95;85.22
68859;BME280;55864;49.238;8.092;2023-03-26T10:36:54;98113.28;;;10.11;86.01
68859;BME280;55864;49.238;8.092;2023-03-26T10:39:07;98115.38;;;10.23;85.85
68859;BME280;55864;49.238;8.092;2023-03-26T10:41:17;98119.22;;;10.35;84.15
68859;BME280;55864;49.238;8.092;2023-03-26T10:43:53;98112.22;;;10.51;84.04
68859;BME280;55864;49.238;8.092;2023-03-26T10:46:21;98110.84;;;10.63;84.24
68859;BME280;55864;49.238;8.092;2023-03-26T10:48:31;98108.16;;;10.71;83.53
68859;BME280;55864;49.238;8.092;2023-03-26T10:50:48;98109.72;;;10.80;84.38
68859;BME280;55864;49.238;8.092;2023-03-26T10:52:53;98114.81;;;10.96;81.56
68859;BME280;55864;49.238;8.092;2023-03-26T10:55:08;98104.06;;;11.05;81.96
68859;BME280;55864;49.238;8.092;2023-03-26T10:57:21;98099.19;;;11.17;80.51
68859;BME280;55864;49.238;8.092;2023-03-26T10:59:25;98111.88;;;11.28;78.01
68859;BME280;55864;49.238;8.092;2023-03-26T11:01:37;98117.06;;;11.36;76.79
68859;BME280;55864;49.238;8.092;2023-03-26T11:03:47;98097.94;;;11.42;75.45
68859;BME280;55864;49.238;8.092;2023-03-26T11:05:54;98098.22;;;11.47;75.42
68859;BME280;55864;49.238;8.092;2023-03-26T11:08:02;98102.22;;;11.58;73.90
68859;BME280;55864;49.238;8.092;2023-03-26T11:10:08;98086.91;;;11.76;73.76
68859;BME280;55864;49.238;8.092;2023-03-26T11:12:18;98105.88;;;11.71;72.53
68859;BME280;55864;49.238;8.092;2023-03-26T11:14:23;98100.97;;;11.68;70.37
68859;BME280;55864;49.238;8.092;2023-03-26T11:16:34;98090.34;;;11.62;69.18
68859;BME280;55864;49.238;8.092;2023-03-26T11:18:47;98102.69;;;11.61;69.27
68859;BME280;55864;49.238;8.092;2023-03-26T11:20:56;98100.88;;;11.62;67.81
68859;BME280;55864;49.238;8.092;2023-03-26T11:23:14;98106.88;;;11.70;68.56
68859;BME280;55864;49.238;8.092;2023-03-26T11:25:26;98093.25;;;11.81;67.95
68859;BME280;55864;49.238;8.092;2023-03-26T11:27:39;98093.34;;;11.88;66.38
68859;BME280;55864;49.238;8.092;2023-03-26T11:29:47;98093.06;;;11.83;64.56
68859;BME280;55864;49.238;8.092;2023-03-26T11:31:56;98093.44;;;11.80;64.19
68859;BME280;55864;49.238;8.092;2023-03-26T11:34:02;98100.59;;;11.86;65.00
68859;BME280;55864;49.238;8.092;2023-03-26T11:36:08;98084.53;;;11.95;62.30
68859;BME280;55864;49.238;8.092;2023-03-26T11:38:17;98081.81;;;12.03;64.80
68859;BME280;55864;49.238;8.092;2023-03-26T11:40:23;98102.72;;;12.11;63.94
68859;BME280;55864;49.238;8.092;2023-03-26T11:42:26;98090.94;;;12.07;62.80
68859;BME280;55864;49.238;8.092;2023-03-26T11:44:32;98076.78;;;12.08;65.23
68859;BME280;55864;49.238;8.092;2023-03-26T11:46:38;98097.47;;;12.11;63.78
68859;BME280;55864;49.238;8.092;2023-03-26T11:48:44;98087.56;;;12.13;62.68
68859;BME280;55864;49.238;8.092;2023-03-26T11:50:48;98089.22;;;12.14;61.61
68859;BME280;55864;49.238;8.092;2023-03-26T11:52:49;98086.81;;;12.19;63.85
68859;BME280;55864;49.238;8.092;2023-03-26T11:54:50;98077.38;;;12.25;63.95
68859;BME280;55864;49.238;8.092;2023-03-26T11:56:56;98081.00;;;12.24;61.56
68859;BME280;55864;49.238;8.092;2023-03-26T11:59:00;98082.72;;;12.32;63.21
68859;BME280;55864;49.238;8.092;2023-03-26T12:01:12;98078.25;;;12.32;60.11
68859;BME280;55864;49.238;8.092;2023-03-26T12:03:14;98083.50;;;12.32;57.83
68859;BME280;55864;49.238;8.092;2023-03-26T12:05:18;98065.78;;;12.41;58.25
68859;BME280;55864;49.238;8.092;2023-03-26T12:07:19;98075.13;;;12.43;59.00
68859;BME280;55864;49.238;8.092;2023-03-26T12:09:20;98080.22;;;12.45;57.19
68859;BME280;55864;49.238;8.092;2023-03-26T12:11:24;98073.81;;;12.32;59.33
68859;BME280;55864;49.238;8.092;2023-03-26T12:13:33;98075.38;;;12.27;59.90